Time;durP1;ratioP1;P1;durP2;ratioP2;P2;SDS_P1;SDS_P2;PMS_P1;PMS_P2;Temp;Humidity;BMP_temperature;BMP_pressure;BME280_temperature;BME280_humidity;BME280_pressure;Samples;Min_cycle;Max_cycle;Signal;HPM_P1;HPM_P2
2023/09/06 00:00:31;;;;;;;12.68;6.85;;;;;;;24.19;64.20;101573.38;2103254;83;51603;-73
2023/09/06 00:03:35;;;;;;;11.95;6.70;;;;;;;24.17;64.14;101572.73;2120917;83;22338;-73
2023/09/06 00:06:37;;;;;;;11.10;6.80;;;;;;;24.19;64.14;101569.84;2121991;83;22329;-73
2023/09/06 00:09:40;;;;;;;13.15;7.15;;;;;;;24.21;64.17;101561.84;2123226;82;51561;-74
2023/09/06 00:12:47;;;;;;;13.15;7.25;;;;;;;24.22;64.10;101564.86;2101750;83;51711;-73
2023/09/06 00:15:47;;;;;;;10.98;6.37;;;;;;;24.27;63.84;101560.22;2121734;83;22432;-72
2023/09/06 00:18:50;;;;;;;10.15;6.97;;;;;;;24.23;64.25;101561.14;2103048;84;51575;-72
2023/09/06 00:21:52;;;;;;;11.70;6.65;;;;;;;24.22;64.31;101559.98;2103926;83;51619;-74
2023/09/06 00:24:57;;;;;;;11.28;6.25;;;;;;;24.20;64.13;101552.57;2118787;83;51410;-73
2023/09/06 00:28:00;;;;;;;13.18;6.90;;;;;;;24.19;64.27;101555.80;2104843;83;22362;-75
2023/09/06 00:31:02;;;;;;;12.70;6.78;;;;;;;24.19;64.41;101560.38;2122779;83;50513;-73
2023/09/06 00:34:05;;;;;;;13.03;7.37;;;;;;;24.18;64.45;101558.20;2122780;83;50248;-73
2023/09/06 00:37:07;;;;;;;11.60;6.55;;;;;;;24.19;64.45;101559.86;2076076;83;51159;-75
2023/09/06 00:40:16;;;;;;;12.90;6.35;;;;;;;24.19;64.43;101561.73;2122705;83;50470;-74
2023/09/06 00:43:16;;;;;;;14.43;6.17;;;;;;;24.18;64.42;101567.66;2096611;83;22352;-73
2023/09/06 00:46:19;;;;;;;12.78;6.20;;;;;;;24.20;64.48;101559.33;2102992;84;51598;-73
2023/09/06 00:49:22;;;;;;;9.23;5.95;;;;;;;24.20;64.52;101555.27;2121147;83;51600;-74
2023/09/06 00:52:24;;;;;;;10.60;6.30;;;;;;;24.20;64.66;101559.33;2121150;83;50731;-77
2023/09/06 00:55:26;;;;;;;12.80;6.70;;;;;;;24.21;64.28;101555.09;2121211;83;51463;-76
2023/09/06 00:58:29;;;;;;;9.90;6.25;;;;;;;24.23;64.32;101553.55;2102831;84;51519;-75
2023/09/06 01:01:33;;;;;;;11.75;6.35;;;;;;;24.22;64.64;101555.39;2101701;84;52577;-74
2023/09/06 01:04:35;;;;;;;13.00;6.12;;;;;;;24.22;64.57;101556.75;2102528;84;22495;-75
2023/09/06 01:07:38;;;;;;;11.20;6.37;;;;;;;24.20;64.54;101553.92;2121064;83;50448;-76
2023/09/06 01:10:40;;;;;;;12.25;6.15;;;;;;;24.20;64.52;101557.98;2121560;83;51459;-74
2023/09/06 01:13:42;;;;;;;11.45;6.80;;;;;;;24.19;64.62;101550.91;2103510;83;51543;-75
2023/09/06 01:16:50;;;;;;;13.58;6.17;;;;;;;24.18;64.60;101559.55;2126784;82;52319;-74
2023/09/06 01:19:52;;;;;;;11.35;6.65;;;;;;;24.20;64.72;101562.03;2123794;83;22334;-74
2023/09/06 01:23:06;;;;;;;12.60;5.67;;;;;;;24.20;64.38;101555.27;2121214;83;50443;-74
2023/09/06 01:26:09;;;;;;;12.80;6.47;;;;;;;24.19;64.54;101561.73;2104643;83;51246;-74
2023/09/06 01:29:11;;;;;;;11.15;5.85;;;;;;;24.18;64.53;101560.07;2104682;83;50628;-75
2023/09/06 01:32:15;;;;;;;10.65;5.70;;;;;;;24.18;64.51;101565.48;2123141;83;50298;-75
2023/09/06 01:35:17;;;;;;;9.03;5.50;;;;;;;24.18;64.54;101561.42;2073209;83;52493;-73
2023/09/06 01:38:19;;;;;;;8.23;5.87;;;;;;;24.18;64.54;101564.12;2082225;83;50793;-73
2023/09/06 01:41:21;;;;;;;10.50;5.60;;;;;;;24.17;64.44;101560.56;2104284;83;52329;-73
2023/09/06 01:44:23;;;;;;;10.20;6.00;;;;;;;24.16;64.54;101557.55;2102919;84;51556;-73
2023/09/06 01:47:27;;;;;;;11.85;6.33;;;;;;;24.16;64.55;101556.20;2103100;84;51475;-73
2023/09/06 01:50:29;;;;;;;10.10;5.78;;;;;;;24.16;64.54;101554.85;2077129;84;51133;-73
2023/09/06 01:53:31;;;;;;;7.95;5.25;;;;;;;24.16;64.65;101555.37;2102704;84;50214;-73
2023/09/06 01:56:33;;;;;;;8.38;5.17;;;;;;;24.13;64.71;101549.32;2102914;84;49981;-73
2023/09/06 01:59:36;;;;;;;11.48;6.20;;;;;;;24.15;64.54;101557.73;2103057;84;50329;-74
2023/09/06 02:02:38;;;;;;;13.08;5.28;;;;;;;24.15;64.50;101556.39;2103166;83;50370;-74
2023/09/06 02:05:43;;;;;;;8.20;5.33;;;;;;;24.15;64.57;101549.63;2120920;83;50694;-74
2023/09/06 02:08:44;;;;;;;10.63;5.37;;;;;;;24.16;64.59;101547.26;2103070;84;22717;-74
2023/09/06 02:11:47;;;;;;;9.48;5.78;;;;;;;24.17;64.46;101547.56;2121205;84;50264;-74
2023/09/06 02:14:52;;;;;;;8.25;5.67;;;;;;;24.16;64.43;101541.33;2122252;83;50225;-74
2023/09/06 02:17:53;;;;;;;9.08;5.37;;;;;;;24.18;64.46;101538.44;2123449;82;22403;-74
2023/09/06 02:20:59;;;;;;;8.70;5.42;;;;;;;24.18;64.45;101541.97;2082632;83;50685;-74
2023/09/06 02:24:01;;;;;;;7.53;5.37;;;;;;;24.17;64.31;101538.10;2082513;83;51566;-74
2023/09/06 02:27:04;;;;;;;6.60;5.00;;;;;;;24.16;64.49;101542.68;2104481;83;51515;-74
2023/09/06 02:30:07;;;;;;;7.95;5.42;;;;;;;24.18;64.34;101542.50;2104871;83;50396;-74
2023/09/06 02:33:11;;;;;;;6.85;5.00;;;;;;;24.15;64.32;101541.02;2070890;83;52484;-74
2023/09/06 02:36:13;;;;;;;11.55;5.55;;;;;;;24.16;64.17;101549.44;2123308;82;22363;-73
2023/09/06 02:39:15;;;;;;;8.95;5.42;;;;;;;24.15;64.68;101549.63;2126451;83;49527;-74
2023/09/06 02:42:17;;;;;;;10.03;5.60;;;;;;;24.15;64.62;101559.09;2121874;83;50618;-74
2023/09/06 02:45:22;;;;;;;8.58;5.42;;;;;;;24.12;64.49;101550.37;2096269;83;50290;-74
2023/09/06 02:48:23;;;;;;;8.75;5.58;;;;;;;24.13;64.57;101540.38;2093848;83;22366;-75
2023/09/06 02:51:29;;;;;;;8.63;5.10;;;;;;;24.13;64.56;101552.55;2082287;83;50276;-74
2023/09/06 02:54:30;;;;;;;13.13;5.63;;;;;;;24.12;64.53;101547.66;2094155;83;22480;-74
2023/09/06 02:57:34;;;;;;;10.23;5.28;;;;;;;24.12;64.52;101551.72;2082098;83;50669;-73
2023/09/06 03:00:40;;;;;;;7.47;4.92;;;;;;;24.13;64.43;101554.73;2093406;83;22860;-75
2023/09/06 03:03:42;;;;;;;7.55;4.95;;;;;;;24.16;64.23;101555.37;2123282;82;22410;-75
2023/09/06 03:06:44;;;;;;;7.17;5.12;;;;;;;24.16;64.12;101570.25;2096377;83;51551;-76
2023/09/06 03:09:46;;;;;;;10.38;4.97;;;;;;;24.16;64.30;101575.66;2094410;83;50145;-75
2023/09/06 03:12:51;;;;;;;7.67;4.83;;;;;;;24.15;64.28;101572.61;2081122;83;49977;-74
2023/09/06 03:15:54;;;;;;;7.25;5.05;;;;;;;24.16;64.12;101579.70;2103286;84;50539;-75
2023/09/06 03:18:56;;;;;;;10.30;4.67;;;;;;;24.15;64.12;101577.53;2103297;84;50367;-75
2023/09/06 03:21:58;;;;;;;8.73;5.22;;;;;;;24.15;64.19;101578.87;2102804;84;50661;-75
2023/09/06 03:25:02;;;;;;;7.50;5.25;;;;;;;24.17;64.03;101578.66;2121242;84;51487;-75
2023/09/06 03:28:04;;;;;;;7.30;5.10;;;;;;;24.15;64.21;101573.47;2103243;83;22312;-74
2023/09/06 03:31:09;;;;;;;7.45;5.22;;;;;;;24.13;64.07;101573.66;2103340;83;50659;-75
2023/09/06 03:34:15;;;;;;;9.18;5.42;;;;;;;24.15;64.00;101579.37;2103083;84;51565;-75
2023/09/06 03:37:18;;;;;;;8.73;5.55;;;;;;;24.13;64.13;101579.06;2102920;83;22445;-75
2023/09/06 03:40:42;;;;;;;9.88;5.28;;;;;;;24.14;63.88;101579.89;2103386;84;22467;-75
2023/09/06 03:43:32;;;;;;;6.47;4.90;;;;;;;24.15;63.91;101585.64;2116249;82;22326;-75
2023/09/06 03:46:28;;;;;;;11.38;5.25;;;;;;;24.15;63.90;101579.37;2123225;83;22419;-74
2023/09/06 03:49:32;;;;;;;10.85;4.80;;;;;;;24.12;63.89;101586.02;2123048;83;50317;-75
2023/09/06 03:52:36;;;;;;;9.30;5.08;;;;;;;24.12;63.97;101586.88;2104926;83;51620;-77
2023/09/06 03:55:38;;;;;;;7.60;4.83;;;;;;;24.10;63.88;101592.98;2082694;83;50349;-73
2023/09/06 03:58:41;;;;;;;7.92;5.22;;;;;;;24.10;64.01;101594.34;2123001;83;50629;-74
2023/09/06 04:01:43;;;;;;;8.70;5.00;;;;;;;24.11;64.04;101597.88;2104673;83;51003;-74
2023/09/06 04:04:47;;;;;;;11.97;5.03;;;;;;;24.10;64.19;101601.62;2104648;83;50286;-74
2023/09/06 04:07:50;;;;;;;7.20;4.40;;;;;;;24.08;64.19;101604.51;2093490;83;51571;-74
2023/09/06 04:10:53;;;;;;;5.95;4.72;;;;;;;24.08;64.23;101602.33;2073864;83;52913;-73
2023/09/06 04:13:55;;;;;;;7.58;4.30;;;;;;;24.08;64.09;101608.56;2122134;82;51546;-73
2023/09/06 04:16:59;;;;;;;8.35;4.37;;;;;;;24.07;64.05;101609.61;2123005;83;51707;-73
2023/09/06 04:20:17;;;;;;;8.43;4.78;;;;;;;24.08;64.23;101605.03;2093311;83;50300;-74
2023/09/06 04:23:06;;;;;;;7.67;4.50;;;;;;;24.08;64.12;101613.97;2083014;83;22513;-74
2023/09/06 04:26:09;;;;;;;8.73;5.08;;;;;;;24.10;64.06;101617.32;2126663;82;52589;-73
2023/09/06 04:29:11;;;;;;;12.37;4.87;;;;;;;24.09;64.08;101616.16;2123134;83;52508;-73
2023/09/06 04:32:17;;;;;;;10.82;4.62;;;;;;;24.10;64.19;101617.32;2123178;83;51394;-73
2023/09/06 04:35:17;;;;;;;9.93;4.58;;;;;;;24.09;63.94;101617.50;2123118;83;22678;-73
2023/09/06 04:38:23;;;;;;;7.42;4.70;;;;;;;24.08;63.99;101623.44;2116012;83;50153;-73
2023/09/06 04:41:24;;;;;;;;;;;;;;;24.10;63.80;101617.32;2116332;83;22413;-74
2023/09/06 04:44:26;;;;;;;10.45;4.60;;;;;;;24.12;64.03;101620.67;2117634;83;51157;-74
2023/09/06 04:47:30;;;;;;;12.13;5.05;;;;;;;24.09;64.17;101629.15;2075557;84;50737;-73
2023/09/06 04:50:32;;;;;;;12.68;4.97;;;;;;;24.09;64.38;101621.03;2093131;84;52457;-74
2023/09/06 04:53:35;;;;;;;12.18;4.35;;;;;;;24.07;64.38;101619.08;2091866;84;51925;-72
2023/09/06 04:56:38;;;;;;;10.32;4.45;;;;;;;24.08;64.27;101626.14;2076056;84;51549;-74
2023/09/06 04:59:40;;;;;;;9.78;4.55;;;;;;;24.14;63.93;101633.98;2070531;84;51277;-73
2023/09/06 05:02:43;;;;;;;15.68;5.17;;;;;;;24.13;63.82;101637.73;2106209;84;50599;-73
2023/09/06 05:05:46;;;;;;;13.08;5.03;;;;;;;24.10;63.89;101636.77;2076239;84;53718;-72
2023/09/06 05:08:48;;;;;;;15.10;5.03;;;;;;;24.09;63.67;101629.15;2091947;84;52484;-73
2023/09/06 05:11:50;;;;;;;14.15;5.33;;;;;;;24.09;63.43;101633.20;2106069;83;51565;-74
2023/09/06 05:14:54;;;;;;;15.53;5.17;;;;;;;24.11;63.24;101633.85;2121561;83;50312;-74
2023/09/06 05:17:56;;;;;;;8.05;5.50;;;;;;;24.13;62.80;101638.55;2105033;83;50437;-74
2023/09/06 05:21:01;;;;;;;14.55;6.20;;;;;;;24.08;61.09;101639.66;2123231;83;51583;-73
2023/09/06 05:24:02;;;;;;;13.70;6.20;;;;;;;24.02;59.95;101639.10;2095281;83;22411;-74
2023/09/06 05:27:04;;;;;;;9.08;5.95;;;;;;;24.00;59.33;101642.51;2082307;83;53218;-73
2023/09/06 05:30:08;;;;;;;9.38;5.78;;;;;;;23.93;57.69;101640.26;2096345;83;51529;-73
2023/09/06 05:33:10;;;;;;;7.85;6.17;;;;;;;23.90;56.56;101638.78;2123015;83;51536;-75
2023/09/06 05:36:13;;;;;;;10.63;6.12;;;;;;;23.90;56.66;101642.00;2122842;83;50339;-74
2023/09/06 05:39:15;;;;;;;12.30;5.95;;;;;;;23.96;57.08;101634.98;2124117;83;50589;-74
2023/09/06 05:42:17;;;;;;;10.03;5.92;;;;;;;24.00;57.22;101642.51;2081883;83;50341;-75
2023/09/06 05:45:21;;;;;;;12.65;5.00;;;;;;;24.00;57.38;101641.67;2121829;83;50295;-75
2023/09/06 05:48:23;;;;;;;10.03;5.33;;;;;;;24.02;57.89;101642.30;2080541;84;51731;-75
2023/09/06 05:51:25;;;;;;;9.35;5.28;;;;;;;24.07;58.45;101647.46;2121399;83;51514;-75
2023/09/06 05:54:28;;;;;;;9.60;4.92;;;;;;;24.09;58.72;101652.13;2121063;83;51493;-75
2023/09/06 05:57:32;;;;;;;11.25;5.15;;;;;;;24.13;58.92;101654.78;2101720;84;52435;-76
2023/09/06 06:00:35;;;;;;;7.95;4.85;;;;;;;24.17;58.79;101654.37;2121431;83;50848;-72
2023/09/06 06:03:37;;;;;;;7.47;5.17;;;;;;;24.22;58.29;101658.16;2103163;83;50312;-71
2023/09/06 06:06:41;;;;;;;10.53;4.80;;;;;;;24.31;57.83;101661.58;2122323;83;50382;-72
2023/09/06 06:09:43;;;;;;;7.30;4.80;;;;;;;24.37;57.67;101660.78;2102014;83;50804;-72
2023/09/06 06:12:46;;;;;;;16.25;4.97;;;;;;;24.47;57.40;101659.95;2119354;82;51412;-72
2023/09/06 06:15:48;;;;;;;10.65;4.90;;;;;;;24.49;57.50;101665.17;2079657;84;50285;-72
2023/09/06 06:18:50;;;;;;;12.15;4.80;;;;;;;24.48;57.45;101660.28;2097183;84;50133;-72
2023/09/06 06:21:52;;;;;;;10.35;5.40;;;;;;;24.50;57.19;101663.60;2119060;84;50059;-72
2023/09/06 06:24:55;;;;;;;9.88;5.30;;;;;;;24.54;56.84;101657.30;2097019;84;51486;-71
2023/09/06 06:27:57;;;;;;;9.80;6.22;;;;;;;24.55;56.51;101658.44;2097220;84;51443;-72
2023/09/06 06:30:59;;;;;;;13.50;6.12;;;;;;;24.56;56.19;101659.30;2100735;83;51545;-72
2023/09/06 06:34:01;;;;;;;9.80;6.17;;;;;;;24.57;55.83;101663.66;2122585;83;50730;-71
2023/09/06 06:37:04;;;;;;;17.77;6.37;;;;;;;24.58;55.66;101663.13;2104475;83;51037;-72
2023/09/06 06:40:07;;;;;;;15.05;6.97;;;;;;;24.59;55.35;101663.47;2082314;83;50393;-71
2023/09/06 06:43:09;;;;;;;12.73;6.95;;;;;;;24.62;55.03;101664.42;2089869;83;51574;-72
2023/09/06 06:46:25;;;;;;;13.98;6.80;;;;;;;24.63;54.84;101660.67;2104717;83;53167;-72
2023/09/06 06:49:27;;;;;;;10.82;6.42;;;;;;;24.64;54.59;101656.95;2123128;82;50409;-73
2023/09/06 06:52:36;;;;;;;8.05;6.28;;;;;;;24.65;54.23;101668.91;2105040;83;50238;-73
2023/09/06 06:55:39;;;;;;;12.98;6.65;;;;;;;24.67;54.04;101670.08;2123162;83;50674;-72
2023/09/06 06:58:41;;;;;;;8.03;5.60;;;;;;;24.67;53.74;101672.78;2104905;83;50614;-72
2023/09/06 07:01:43;;;;;;;9.53;6.33;;;;;;;24.69;53.53;101673.42;2126974;83;51018;-72
2023/09/06 07:04:45;;;;;;;12.25;6.17;;;;;;;24.69;53.40;101668.84;2081922;83;51554;-72
2023/09/06 07:07:48;;;;;;;11.03;5.92;;;;;;;24.70;53.25;101665.61;2082567;83;51545;-71
2023/09/06 07:10:50;;;;;;;10.30;5.78;;;;;;;24.71;53.04;101674.03;2082174;83;50385;-71
2023/09/06 07:13:52;;;;;;;8.63;6.10;;;;;;;24.71;52.87;101672.69;2093654;83;51454;-71
2023/09/06 07:16:55;;;;;;;9.98;5.95;;;;;;;24.71;52.74;101676.74;2104948;83;50029;-72
2023/09/06 07:19:58;;;;;;;10.75;6.30;;;;;;;24.70;52.61;101671.02;2105113;83;51499;-72
2023/09/06 07:23:00;;;;;;;11.20;6.15;;;;;;;24.71;52.49;101676.74;2123027;83;51558;-72
2023/09/06 07:26:04;;;;;;;9.45;5.85;;;;;;;24.70;52.34;101692.16;2074167;83;52483;-72
2023/09/06 07:29:06;;;;;;;11.28;6.53;;;;;;;24.71;52.26;101679.45;2123196;83;51500;-73
2023/09/06 07:32:08;;;;;;;8.35;6.03;;;;;;;24.71;52.19;101677.60;2123142;83;51501;-72
2023/09/06 07:35:11;;;;;;;11.22;6.08;;;;;;;24.72;52.00;101680.62;2123237;83;51601;-74
2023/09/06 07:38:14;;;;;;;9.60;5.83;;;;;;;24.71;51.96;101681.66;2082784;83;51584;-71
2023/09/06 07:41:17;;;;;;;8.35;5.90;;;;;;;24.72;51.88;101679.78;2122673;83;51659;-72
2023/09/06 07:44:19;;;;;;;10.93;5.85;;;;;;;24.71;51.87;101678.09;2103810;83;50690;-73
2023/09/06 07:47:21;;;;;;;7.72;6.17;;;;;;;24.71;51.86;101684.37;2121605;83;50426;-73
2023/09/06 07:50:24;;;;;;;12.15;6.50;;;;;;;24.71;51.71;101684.37;2121719;84;50635;-74
2023/09/06 07:53:26;;;;;;;8.45;6.37;;;;;;;24.73;51.63;101684.16;2121596;83;51463;-73
2023/09/06 07:56:28;;;;;;;9.18;6.22;;;;;;;24.73;51.56;101686.86;2121069;84;50292;-72
2023/09/06 07:59:31;;;;;;;8.75;6.25;;;;;;;24.72;51.52;101687.91;2103500;83;52411;-73
2023/09/06 08:02:33;;;;;;;6.50;5.78;;;;;;;24.75;51.36;101687.50;2102972;83;50767;-73
2023/09/06 08:05:35;;;;;;;7.78;5.83;;;;;;;24.73;51.35;101690.92;2121409;84;51288;-73
2023/09/06 08:08:37;;;;;;;8.60;6.00;;;;;;;24.73;51.38;101692.27;2103089;83;50685;-73
2023/09/06 08:11:40;;;;;;;9.43;6.20;;;;;;;24.71;51.30;101692.98;2103040;83;51473;-73
2023/09/06 08:14:43;;;;;;;8.70;6.17;;;;;;;24.72;51.32;101700.91;2101817;84;52605;-73
2023/09/06 08:17:50;;;;;;;12.23;5.97;;;;;;;24.71;51.33;101697.91;2121412;83;51623;-72
2023/09/06 08:20:50;;;;;;;8.78;6.15;;;;;;;24.71;51.24;101699.75;2103321;84;22209;-72
2023/09/06 08:23:52;;;;;;;7.83;6.00;;;;;;;24.71;51.27;101695.69;2124717;83;51271;-73
2023/09/06 08:26:55;;;;;;;10.63;6.47;;;;;;;24.70;51.25;101692.67;2120464;84;50499;-73
2023/09/06 08:29:58;;;;;;;10.00;6.60;;;;;;;24.69;51.26;101692.38;2103137;83;50615;-73
2023/09/06 08:33:00;;;;;;;10.05;7.22;;;;;;;24.69;51.31;101697.78;2102720;84;50462;-73
2023/09/06 08:36:02;;;;;;;10.40;6.95;;;;;;;24.66;51.40;101707.63;2103106;83;51704;-73
2023/09/06 08:39:06;;;;;;;12.55;6.62;;;;;;;24.66;51.45;101699.50;2076314;84;52373;-73
2023/09/06 08:42:08;;;;;;;10.18;6.50;;;;;;;24.66;51.38;101700.86;2103228;83;50787;-73
2023/09/06 08:45:11;;;;;;;7.55;5.97;;;;;;;24.63;51.42;101699.38;2121147;83;51455;-73
2023/09/06 08:48:13;;;;;;;10.10;6.60;;;;;;;24.63;51.46;101703.45;2124720;83;51740;-73
2023/09/06 08:51:17;;;;;;;7.50;6.62;;;;;;;24.64;51.47;101709.72;2121487;84;51562;-73
2023/09/06 08:54:19;;;;;;;8.20;6.55;;;;;;;24.63;51.47;101702.61;2120790;83;51558;-73
2023/09/06 08:57:22;;;;;;;10.03;6.85;;;;;;;24.62;51.49;101706.37;2121064;84;51536;-73
2023/09/06 09:00:24;;;;;;;12.43;6.50;;;;;;;24.60;51.51;101703.84;2122038;83;51483;-73
2023/09/06 09:03:26;;;;;;;9.40;6.90;;;;;;;24.59;51.60;101711.66;2080265;82;52384;-73
2023/09/06 09:06:29;;;;;;;10.72;6.50;;;;;;;24.59;51.59;101704.06;2102878;84;51418;-73
2023/09/06 09:09:31;;;;;;;11.83;6.30;;;;;;;24.58;51.67;101710.49;2103036;83;50850;-72
2023/09/06 09:12:34;;;;;;;12.35;7.10;;;;;;;24.55;51.69;101712.55;2106475;83;52483;-72
2023/09/06 09:15:36;;;;;;;9.25;6.45;;;;;;;24.54;51.72;101709.53;2104433;82;51573;-73
2023/09/06 09:18:39;;;;;;;10.00;6.35;;;;;;;24.53;51.73;101709.23;2122995;83;51448;-73
2023/09/06 09:21:41;;;;;;;9.73;6.87;;;;;;;24.51;51.86;101707.23;2104684;83;51587;-74
2023/09/06 09:24:44;;;;;;;10.80;6.80;;;;;;;24.52;51.81;101706.19;2104378;83;50250;-73
2023/09/06 09:27:46;;;;;;;9.30;6.92;;;;;;;24.50;51.85;101708.25;2081884;83;51436;-72
2023/09/06 09:30:49;;;;;;;9.70;6.60;;;;;;;24.49;51.89;101717.41;2104768;83;50325;-73
2023/09/06 09:33:51;;;;;;;7.42;6.33;;;;;;;24.47;51.97;101720.82;2123179;83;50822;-74
2023/09/06 09:36:54;;;;;;;10.55;6.40;;;;;;;24.47;52.00;101716.77;2105026;83;52559;-72
2023/09/06 09:39:59;;;;;;;9.28;6.55;;;;;;;24.46;52.04;101720.52;2122978;82;50263;-72
2023/09/06 09:43:04;;;;;;;8.68;6.35;;;;;;;24.44;52.07;101717.13;2121175;82;51490;-73
2023/09/06 09:46:09;;;;;;;7.83;6.35;;;;;;;24.44;52.15;101725.25;2103380;84;50316;-73
2023/09/06 09:49:12;;;;;;;9.05;6.17;;;;;;;24.43;52.20;101721.37;2121615;83;51593;-73
2023/09/06 09:52:16;;;;;;;9.30;6.40;;;;;;;24.42;52.27;101719.71;2101772;84;50167;-73
2023/09/06 09:55:20;;;;;;;13.43;6.47;;;;;;;24.41;52.29;101714.82;2121178;83;50062;-73
2023/09/06 09:58:22;;;;;;;8.30;5.95;;;;;;;24.42;52.28;101711.59;2121522;83;52355;-73
2023/09/06 10:01:25;;;;;;;10.82;6.53;;;;;;;24.40;52.31;101714.48;2076787;83;52379;-73
2023/09/06 10:04:28;;;;;;;10.53;6.28;;;;;;;24.39;52.35;101716.88;2102875;83;51529;-72
2023/09/06 10:07:31;;;;;;;6.75;6.08;;;;;;;24.39;52.46;101709.28;2120836;83;50281;-72
2023/09/06 10:10:33;;;;;;;7.85;6.00;;;;;;;24.39;52.51;101716.05;2121183;83;51375;-73
2023/09/06 10:13:37;;;;;;;7.47;6.40;;;;;;;24.37;52.59;101709.47;2121256;83;50784;-73
2023/09/06 10:16:40;;;;;;;8.00;6.40;;;;;;;24.37;52.69;101707.28;2077170;84;52790;-73
2023/09/06 10:19:42;;;;;;;8.48;6.22;;;;;;;24.37;52.82;101720.30;2103275;83;50301;-73
2023/09/06 10:22:48;;;;;;;7.10;5.92;;;;;;;24.37;52.84;101717.59;2121193;84;50315;-73
2023/09/06 10:25:51;;;;;;;8.15;5.55;;;;;;;24.37;52.85;101712.17;2077658;83;52420;-73
2023/09/06 10:29:01;;;;;;;7.45;6.22;;;;;;;24.40;52.85;101715.01;2103220;84;51602;-73
2023/09/06 10:32:04;;;;;;;7.78;5.97;;;;;;;24.38;53.01;101713.87;2103130;84;50437;-73
2023/09/06 10:35:24;;;;;;;7.47;5.70;;;;;;;24.39;53.00;101716.05;2102783;83;51478;-73
2023/09/06 10:38:27;;;;;;;7.85;5.60;;;;;;;24.38;53.07;101714.36;2120717;83;51507;-72
2023/09/06 10:41:29;;;;;;;8.63;6.22;;;;;;;24.37;53.04;101717.59;2121255;82;50321;-72
2023/09/06 10:44:33;;;;;;;7.80;5.97;;;;;;;24.38;53.08;101714.36;2082151;84;51241;-72
2023/09/06 10:47:36;;;;;;;6.65;5.70;;;;;;;24.39;53.11;101714.70;2118886;83;50278;-72
2023/09/06 10:50:38;;;;;;;7.92;6.22;;;;;;;24.38;53.16;101712.52;2102953;83;51533;-75
2023/09/06 10:53:40;;;;;;;7.92;5.47;;;;;;;24.36;53.18;101707.81;2102758;82;50251;-73
2023/09/06 10:56:45;;;;;;;6.87;5.53;;;;;;;24.37;53.16;101707.28;2102870;83;51507;-73
2023/09/06 10:59:58;;;;;;;7.72;6.15;;;;;;;24.35;53.27;101706.12;2101858;84;52422;-73
2023/09/06 11:03:17;;;;;;;7.30;5.90;;;;;;;24.36;53.30;101700.22;2120479;83;51493;-73
2023/09/06 11:06:15;;;;;;;8.63;6.07;;;;;;;24.37;53.30;101701.36;2121690;82;22385;-74
2023/09/06 11:09:18;;;;;;;8.15;6.25;;;;;;;24.36;53.34;101699.70;2124607;83;52287;-74
2023/09/06 11:12:20;;;;;;;7.60;5.45;;;;;;;24.35;53.36;101696.66;2102609;83;51538;-74
2023/09/06 11:15:24;;;;;;;7.37;5.78;;;;;;;24.36;53.36;101688.05;2103242;83;51497;-73
2023/09/06 11:18:28;;;;;;;6.20;5.53;;;;;;;24.37;53.37;101701.88;2102454;84;52573;-74
2023/09/06 11:21:31;;;;;;;8.73;5.92;;;;;;;24.38;53.35;101697.64;2121131;83;50074;-74
2023/09/06 11:24:35;;;;;;;7.15;5.62;;;;;;;24.38;53.37;101688.17;2100695;83;51007;-74
2023/09/06 11:27:38;;;;;;;8.68;6.12;;;;;;;24.36;53.46;101690.23;2102762;84;51607;-74
2023/09/06 11:30:41;;;;;;;6.92;5.97;;;;;;;24.40;53.41;101687.95;2103040;84;50828;-72
2023/09/06 11:33:44;;;;;;;6.65;5.40;;;;;;;24.39;53.41;101684.42;2100702;83;52691;-73
2023/09/06 11:36:47;;;;;;;6.08;5.47;;;;;;;24.39;53.43;101685.77;2102580;83;50692;-72
2023/09/06 11:39:49;;;;;;;6.08;5.47;;;;;;;24.40;53.43;101682.02;2121203;84;49920;-73
2023/09/06 11:42:54;;;;;;;6.15;5.53;;;;;;;24.39;53.45;101688.48;2103369;83;51481;-73
2023/09/06 11:46:03;;;;;;;8.18;5.87;;;;;;;24.41;53.42;101681.00;2123145;82;52362;-73
2023/09/06 11:49:00;;;;;;;9.28;5.60;;;;;;;24.44;53.35;101668.95;2123514;82;22279;-73
2023/09/06 11:52:05;;;;;;;5.80;5.20;;;;;;;24.40;53.35;101673.91;2122773;83;50278;-72
2023/09/06 11:55:09;;;;;;;6.28;5.22;;;;;;;24.41;53.39;101672.89;2123050;83;22268;-73
2023/09/06 11:58:18;;;;;;;6.40;5.65;;;;;;;24.46;53.33;101667.75;2126627;82;22362;-73
2023/09/06 12:01:21;;;;;;;7.05;5.67;;;;;;;24.47;53.32;101667.23;2123022;83;50685;-73
2023/09/06 12:04:26;;;;;;;7.90;5.83;;;;;;;24.47;53.30;101665.88;2122517;83;51398;-73
2023/09/06 12:07:28;;;;;;;6.30;5.62;;;;;;;24.48;53.21;101667.05;2126558;82;22492;-73
2023/09/06 12:10:31;;;;;;;7.12;5.92;;;;;;;24.46;53.28;101667.75;2122765;83;52314;-73
2023/09/06 12:13:35;;;;;;;11.05;5.87;;;;;;;24.47;53.15;101666.70;2125300;83;51254;-73
2023/09/06 12:16:37;;;;;;;6.47;5.75;;;;;;;24.46;52.79;101674.52;2103488;83;50469;-73
2023/09/06 12:19:39;;;;;;;7.95;5.90;;;;;;;24.49;52.83;101666.52;2120760;84;51519;-73
2023/09/06 12:22:41;;;;;;;6.65;5.37;;;;;;;24.50;52.42;101667.66;2081458;84;52507;-73
2023/09/06 12:25:44;;;;;;;9.48;5.90;;;;;;;24.51;52.35;101666.64;2121403;83;51471;-73
2023/09/06 12:28:47;;;;;;;6.28;5.50;;;;;;;24.48;51.81;101660.77;2102811;84;51494;-73
2023/09/06 12:31:50;;;;;;;6.85;5.62;;;;;;;24.48;51.61;101658.07;2103182;84;50316;-73
2023/09/06 12:34:52;;;;;;;6.47;5.67;;;;;;;24.47;51.63;101664.53;2120438;83;50496;-73
2023/09/06 12:37:57;;;;;;;6.10;5.50;;;;;;;24.47;51.25;101666.70;2102932;83;50257;-73
2023/09/06 12:41:01;;;;;;;5.75;5.03;;;;;;;24.44;51.47;101658.96;2103745;83;22499;-73
2023/09/06 12:44:04;;;;;;;7.58;5.60;;;;;;;24.46;51.15;101659.64;2119911;82;50784;-73
2023/09/06 12:47:16;;;;;;;7.12;5.72;;;;;;;24.47;51.28;101655.89;2044259;83;51687;-73
2023/09/06 12:50:19;;;;;;;6.45;5.30;;;;;;;24.46;51.06;101654.75;2125897;82;51576;-73
2023/09/06 12:53:23;;;;;;;6.62;5.33;;;;;;;24.48;50.58;101654.88;2132709;82;50715;-73
2023/09/06 12:56:25;;;;;;;7.25;5.62;;;;;;;24.47;50.83;101649.12;2102652;83;51656;-73
2023/09/06 12:59:27;;;;;;;6.90;5.33;;;;;;;24.48;50.67;101648.59;2092451;83;50722;-73
2023/09/06 13:02:29;;;;;;;7.35;5.08;;;;;;;24.50;50.57;101653.30;2076051;82;52505;-73
2023/09/06 13:05:32;;;;;;;7.03;5.37;;;;;;;24.50;50.49;101652.78;2096685;83;51520;-73
2023/09/06 13:08:34;;;;;;;9.30;5.35;;;;;;;24.51;50.37;101645.52;2122086;83;51483;-73
2023/09/06 13:11:37;;;;;;;7.65;5.15;;;;;;;24.53;50.33;101646.14;2103253;83;51243;-73
2023/09/06 13:14:39;;;;;;;5.85;5.15;;;;;;;24.54;50.26;101645.12;2069438;83;51660;-72
2023/09/06 13:17:41;;;;;;;6.50;5.20;;;;;;;24.52;50.22;101639.89;2121768;83;52174;-73
2023/09/06 13:20:43;;;;;;;7.70;5.12;;;;;;;24.53;50.20;101645.64;2082046;83;51533;-73
2023/09/06 13:23:45;;;;;;;16.07;5.62;;;;;;;24.54;50.26;101637.83;2095662;83;51570;-73
2023/09/06 13:26:49;;;;;;;7.80;5.67;;;;;;;24.55;50.05;101642.20;2073401;83;52374;-73
2023/09/06 13:29:55;;;;;;;9.18;5.92;;;;;;;24.57;50.01;101638.48;2096653;83;50389;-73
2023/09/06 13:32:55;;;;;;;8.08;5.60;;;;;;;24.57;49.89;101643.89;2105212;83;22422;-73
2023/09/06 13:35:58;;;;;;;7.17;5.53;;;;;;;24.58;49.85;101634.72;2073942;83;52345;-73
2023/09/06 13:39:00;;;;;;;8.53;5.83;;;;;;;24.59;49.82;101640.47;2095996;83;51482;-73
2023/09/06 13:42:02;;;;;;;6.55;5.28;;;;;;;24.60;49.80;101635.36;2081647;83;51495;-73
2023/09/06 13:45:05;;;;;;;8.83;5.50;;;;;;;24.62;49.80;101633.30;2091153;84;51453;-73
2023/09/06 13:48:09;;;;;;;5.97;5.03;;;;;;;24.62;49.72;101634.66;2121468;83;50657;-73
2023/09/06 13:51:11;;;;;;;6.28;5.28;;;;;;;24.64;49.73;101631.23;2080925;84;49351;-72
2023/09/06 13:54:13;;;;;;;7.15;4.67;;;;;;;24.64;49.74;101633.95;2121096;84;50236;-73
2023/09/06 13:57:15;;;;;;;7.90;5.15;;;;;;;24.66;49.69;101622.38;2103053;84;50688;-72
2023/09/06 14:00:18;;;;;;;8.95;5.50;;;;;;;24.67;49.70;101618.66;2080555;84;52582;-72
2023/09/06 14:03:21;;;;;;;8.78;5.35;;;;;;;24.67;49.66;101615.42;2103602;83;51488;-73
2023/09/06 14:06:23;;;;;;;7.75;5.50;;;;;;;24.68;49.66;101614.90;2103428;83;50293;-71